North Waltham, MA (02451)

11:54 AM EDT on August 25, 2016 (GMT -0400)
Waltham MA | | Change Station

Elev 161 ft 42.39 °N, 71.27 °W | Updated 5 seconds ago

Scattered Clouds
Scattered Clouds
83.3 °F
Feels Like 85 °F
N
3.6
Wind Variable Wind from WSW
Gusts 4.9 mph

Today
High -- | Low -- °F
--% Chance of Precip.
Yesterday
High -- | Low -- °F
Precip. -- in
Pressure 30.08 in
Visibility 10.0 miles
Clouds Scattered Clouds 18000 ft
Heat Index 85 °F
Dew Point 65 °F
Humidity 54%
Rainfall 0.00 in
Snow Depth Not available.
6:03 AM 7:29 PM
Last Quarter, 44% visible
METAR KBED 251456Z 21013G18KT 10SM SCT180 28/17 A3005 RMK AO2 SLP186 T02780167 56012
Pressure 30.08 in
Visibility 10.0 miles
Clouds Scattered Clouds 18000 ft
Heat Index 85 °F
Dew Point 65 °F
Humidity 54%
Rainfall 0.00 in
Snow Depth Not available.
6:03 AM 7:29 PM
Last Quarter, 44% visible
METAR KBED 251456Z 21013G18KT 10SM SCT180 28/17 A3005 RMK AO2 SLP186 T02780167 56012

10-Day Weather Forecast

Almanac

Astronomy

Aug. 25, 2016 Rise Set
Actual Time
Civil Twilight
Nautical Twilight
Astronomical Twilight
Moon
Length of Visible Light
Length of Day
Tomorrow will be .
, % of the Moon is Illuminated

Today's Extremes

State Highs State Lows

Community

WunderPhotos

Upload Photos

1,934,867 photos uploaded!

WunderBlog® & News

Nearby

Air Quality

  Air Quality AQ Index Pollutant
Not available.

Snow Depth

Station Depth Elevation

Earthquake Activity

City Distance Mag. Time & Date
Minimum magnitude displayed is 2.5.

Coastal Water Temperatures

Place Temperature

Stations

Nearby Weather Stations

Station Location Temp. Windchill Dew Point Humidity Wind Precip. Elev Updated Type
                   

Watches & Warnings

There are currently no watches in effect.